Time;durP1;ratioP1;P1;durP2;ratioP2;P2;SDS_P1;SDS_P2;PMS_P1;PMS_P2;Temp;Humidity;BMP_temperature;BMP_pressure;BME280_temperature;BME280_humidity;BME280_pressure;Samples;Min_cycle;Max_cycle;Signal;HPM_P1;HPM_P2
2022/05/20 00:01:49;;;;;;;11.95;10.75;;;;;;;;;;5052614;28;20049;-37
2022/05/20 00:04:16;;;;;;;14.02;11.85;;;;;;;;;;5052651;28;20088;-33
2022/05/20 00:06:42;;;;;;;13.35;11.40;;;;;;;;;;5052734;28;20532;-32
2022/05/20 00:09:08;;;;;;;12.20;11.00;;;;;;;;;;5052576;28;20419;-35
2022/05/20 00:11:34;;;;;;;13.15;11.85;;;;;;;;;;5052720;28;20088;-34
2022/05/20 00:14:01;;;;;;;12.38;11.13;;;;;;;;;;5052453;28;20037;-33
2022/05/20 00:16:29;;;;;;;13.15;10.70;;;;;;;;;;5052673;28;20059;-35
2022/05/20 00:18:55;;;;;;;11.75;10.48;;;;;;;;;;5051980;28;20044;-33
2022/05/20 00:21:21;;;;;;;12.60;11.38;;;;;;;;;;5052142;28;20045;-35
2022/05/20 00:23:47;;;;;;;15.13;11.77;;;;;;;;;;5052705;28;20051;-34
2022/05/20 00:26:13;;;;;;;15.48;11.85;;;;;;;;;;5052250;28;20087;-33
2022/05/20 00:28:40;;;;;;;12.15;11.00;;;;;;;;;;5052118;28;20041;-33
2022/05/20 00:31:08;;;;;;;11.52;10.52;;;;;;;;;;5051873;28;20368;-33
2022/05/20 00:33:35;;;;;;;12.40;10.82;;;;;;;;;;5034073;28;20102;-33
2022/05/20 00:36:01;;;;;;;13.50;10.55;;;;;;;;;;5051959;28;20076;-34
2022/05/20 00:38:27;;;;;;;11.85;10.57;;;;;;;;;;5051774;28;20041;-36
2022/05/20 00:40:54;;;;;;;11.32;10.18;;;;;;;;;;5051343;28;20114;-35
2022/05/20 00:43:27;;;;;;;11.65;10.10;;;;;;;;;;5051870;28;20125;-34
2022/05/20 00:45:55;;;;;;;10.80;8.97;;;;;;;;;;5051480;28;20080;-32
2022/05/20 00:48:22;;;;;;;11.93;10.70;;;;;;;;;;5050891;28;20275;-33
2022/05/20 00:50:55;;;;;;;10.73;9.68;;;;;;;;;;5051630;28;20065;-34
2022/05/20 00:53:23;;;;;;;12.77;11.35;;;;;;;;;;5051487;28;20048;-33
2022/05/20 00:55:49;;;;;;;11.40;10.02;;;;;;;;;;5051155;28;20033;-37
2022/05/20 00:58:22;;;;;;;13.27;11.70;;;;;;;;;;5051145;28;20041;-34
2022/05/20 01:00:51;;;;;;;12.35;10.13;;;;;;;;;;5051134;28;20044;-32
2022/05/20 01:03:19;;;;;;;11.50;10.30;;;;;;;;;;5052043;28;20486;-34
2022/05/20 01:05:47;;;;;;;12.07;10.60;;;;;;;;;;5051417;28;20036;-33
2022/05/20 01:08:15;;;;;;;12.02;10.77;;;;;;;;;;5051381;28;20048;-33
2022/05/20 01:10:41;;;;;;;15.48;12.40;;;;;;;;;;5033819;28;20040;-32
2022/05/20 01:13:08;;;;;;;13.32;11.80;;;;;;;;;;5033301;28;20067;-32
2022/05/20 01:15:34;;;;;;;14.40;11.68;;;;;;;;;;5051384;28;20449;-34
2022/05/20 01:18:00;;;;;;;13.88;11.45;;;;;;;;;;5050731;28;20126;-34
2022/05/20 01:20:28;;;;;;;13.35;11.50;;;;;;;;;;5051377;28;20037;-34
2022/05/20 01:22:54;;;;;;;13.25;11.80;;;;;;;;;;5047404;28;20076;-33
2022/05/20 01:25:25;;;;;;;16.05;12.07;;;;;;;;;;5030367;28;20040;-35
2022/05/20 01:27:51;;;;;;;14.32;12.63;;;;;;;;;;5030169;28;20492;-31
2022/05/20 01:30:18;;;;;;;13.77;12.32;;;;;;;;;;5030974;28;20476;-33
2022/05/20 01:32:45;;;;;;;15.75;12.88;;;;;;;;;;5040287;28;20033;-35
2022/05/20 01:35:15;;;;;;;15.57;12.82;;;;;;;;;;5051402;28;20524;-32
2022/05/20 01:37:41;;;;;;;17.05;13.20;;;;;;;;;;5050905;28;20049;-34
2022/05/20 01:40:08;;;;;;;16.52;12.95;;;;;;;;;;5050354;28;20037;-31
2022/05/20 01:42:40;;;;;;;17.42;12.60;;;;;;;;;;5051380;28;20086;-34
2022/05/20 01:45:13;;;;;;;16.50;13.30;;;;;;;;;;5050168;28;20048;-33
2022/05/20 01:47:39;;;;;;;17.35;14.38;;;;;;;;;;5035838;28;20491;-32
2022/05/20 01:50:05;;;;;;;15.93;12.90;;;;;;;;;;5038284;28;20254;-33
2022/05/20 01:52:37;;;;;;;14.80;13.02;;;;;;;;;;5035675;28;20037;-31
2022/05/20 01:55:07;;;;;;;17.60;13.13;;;;;;;;;;5034084;28;20056;-30
2022/05/20 01:57:48;;;;;;;18.25;13.13;;;;;;;;;;5035473;28;20041;-29
2022/05/20 02:00:18;;;;;;;14.05;12.35;;;;;;;;;;5035257;28;20091;-29
2022/05/20 02:02:48;;;;;;;16.67;14.10;;;;;;;;;;5034714;28;20487;-29
2022/05/20 02:05:35;;;;;;;17.50;12.73;;;;;;;;;;5034584;28;20084;-28
2022/05/20 02:08:04;;;;;;;17.80;13.40;;;;;;;;;;5013747;28;20187;-29
2022/05/20 02:10:34;;;;;;;14.15;11.82;;;;;;;;;;5035553;28;20041;-30
2022/05/20 02:13:02;;;;;;;18.83;13.30;;;;;;;;;;5016741;28;20380;-31
2022/05/20 02:15:36;;;;;;;14.73;12.70;;;;;;;;;;5035532;28;20041;-30
2022/05/20 02:18:04;;;;;;;15.93;12.60;;;;;;;;;;5034687;28;20041;-30
2022/05/20 02:20:36;;;;;;;14.27;12.32;;;;;;;;;;5035148;28;20041;-31
2022/05/20 02:23:04;;;;;;;12.68;11.38;;;;;;;;;;5035166;28;20041;-30
2022/05/20 02:25:32;;;;;;;13.63;12.23;;;;;;;;;;5016106;28;20037;-30
2022/05/20 02:28:02;;;;;;;13.48;12.05;;;;;;;;;;5034739;28;20038;-31
2022/05/20 02:30:31;;;;;;;15.98;12.20;;;;;;;;;;5034119;28;20116;-31
2022/05/20 02:33:06;;;;;;;14.75;11.57;;;;;;;;;;5034729;28;20042;-30
2022/05/20 02:35:32;;;;;;;14.27;12.40;;;;;;;;;;5034979;28;20077;-30
2022/05/20 02:38:06;;;;;;;15.00;11.82;;;;;;;;;;5034772;28;20459;-30
2022/05/20 02:40:33;;;;;;;16.23;11.95;;;;;;;;;;5033820;28;20073;-30
2022/05/20 02:42:59;;;;;;;12.68;11.40;;;;;;;;;;5034166;28;20076;-30
2022/05/20 02:45:25;;;;;;;13.23;11.18;;;;;;;;;;5034380;28;20129;-30
2022/05/20 02:47:51;;;;;;;14.50;10.95;;;;;;;;;;5034380;28;20041;-30
2022/05/20 02:50:17;;;;;;;14.18;12.68;;;;;;;;;;5034557;28;20045;-31
2022/05/20 02:52:43;;;;;;;13.77;12.13;;;;;;;;;;5032331;28;20033;-30
2022/05/20 02:55:10;;;;;;;14.30;11.52;;;;;;;;;;5033661;28;20045;-30
2022/05/20 02:57:36;;;;;;;12.82;11.52;;;;;;;;;;5034069;28;20088;-30
2022/05/20 03:05:33;;;;;;;13.80;10.60;;;;;;;;;;5034006;28;20049;-30
2022/05/20 03:07:59;;;;;;;11.38;10.30;;;;;;;;;;5034168;28;20045;-29
2022/05/20 03:10:26;;;;;;;14.10;10.60;;;;;;;;;;5034110;28;20444;-29
2022/05/20 03:12:52;;;;;;;12.27;10.85;;;;;;;;;;5033871;28;20034;-31
2022/05/20 03:15:20;;;;;;;15.00;11.27;;;;;;;;;;5033481;28;20049;-31
2022/05/20 03:17:46;;;;;;;12.35;11.13;;;;;;;;;;5034090;28;20102;-31
2022/05/20 03:20:12;;;;;;;13.95;11.38;;;;;;;;;;5033679;28;20091;-30
2022/05/20 03:22:38;;;;;;;11.27;9.30;;;;;;;;;;5033406;28;20064;-30
2022/05/20 03:25:05;;;;;;;11.77;9.98;;;;;;;;;;5033404;28;20046;-30
2022/05/20 03:27:32;;;;;;;12.25;10.45;;;;;;;;;;5033497;28;20384;-30
2022/05/20 03:29:58;;;;;;;10.68;9.43;;;;;;;;;;5033249;28;20497;-30
2022/05/20 03:32:25;;;;;;;11.77;9.95;;;;;;;;;;5032998;28;20617;-30
2022/05/20 03:34:51;;;;;;;13.25;9.77;;;;;;;;;;5033731;28;20042;-30
2022/05/20 03:37:17;;;;;;;14.35;9.80;;;;;;;;;;5032589;28;20037;-30
2022/05/20 03:39:43;;;;;;;11.30;9.77;;;;;;;;;;5033653;28;20450;-30
2022/05/20 03:42:09;;;;;;;13.85;10.23;;;;;;;;;;5034023;28;20125;-31
2022/05/20 03:44:35;;;;;;;11.93;9.98;;;;;;;;;;5033508;28;20087;-33
2022/05/20 03:47:02;;;;;;;11.85;9.07;;;;;;;;;;5049631;28;20044;-29
2022/05/20 03:49:29;;;;;;;12.27;9.60;;;;;;;;;;5052611;28;20511;-31
2022/05/20 03:51:56;;;;;;;13.57;10.88;;;;;;;;;;5052856;28;20076;-30
2022/05/20 03:54:24;;;;;;;10.93;9.13;;;;;;;;;;5052795;28;20041;-29
2022/05/20 03:56:50;;;;;;;12.75;9.63;;;;;;;;;;5051699;28;20052;-30
2022/05/20 03:59:16;;;;;;;13.57;9.55;;;;;;;;;;5052260;28;20049;-30
2022/05/20 04:01:58;;;;;;;12.82;9.85;;;;;;;;;;5052181;28;20041;-30
2022/05/20 04:04:31;;;;;;;13.23;10.35;;;;;;;;;;5052551;28;20052;-30
2022/05/20 04:06:58;;;;;;;12.82;10.20;;;;;;;;;;5050433;28;20041;-30
2022/05/20 04:09:24;;;;;;;14.20;10.90;;;;;;;;;;5052588;28;20048;-30
2022/05/20 04:11:52;;;;;;;14.98;11.23;;;;;;;;;;5052140;28;20189;-31
2022/05/20 04:14:18;;;;;;;14.25;10.10;;;;;;;;;;5052492;28;20040;-30
2022/05/20 04:16:45;;;;;;;12.55;10.70;;;;;;;;;;5052669;28;20045;-31
2022/05/20 04:19:11;;;;;;;11.75;10.52;;;;;;;;;;5034211;28;20190;-30
2022/05/20 04:21:38;;;;;;;15.20;11.13;;;;;;;;;;5052311;28;20041;-31
2022/05/20 04:24:05;;;;;;;14.38;10.02;;;;;;;;;;5041513;28;20041;-31
2022/05/20 04:26:31;;;;;;;12.25;10.60;;;;;;;;;;5014803;28;20495;-30
2022/05/20 04:28:57;;;;;;;13.27;10.55;;;;;;;;;;5032641;28;20506;-30
2022/05/20 04:31:23;;;;;;;12.73;10.43;;;;;;;;;;5031731;28;20037;-30
2022/05/20 04:33:49;;;;;;;11.48;9.68;;;;;;;;;;5046202;28;20041;-29
2022/05/20 04:36:15;;;;;;;12.88;9.98;;;;;;;;;;5051410;28;20394;-30
2022/05/20 04:38:42;;;;;;;10.95;9.75;;;;;;;;;;5051581;28;20099;-29
2022/05/20 04:49:22;;;;;;;12.85;11.00;;;;;;;;;;5032087;28;20399;-30
2022/05/20 04:51:48;;;;;;;14.73;11.45;;;;;;;;;;5031610;28;20041;-30
2022/05/20 04:57:00;;;;;;;13.45;11.70;;;;;;;;;;5035923;28;20102;-30
2022/05/20 04:59:26;;;;;;;13.40;12.00;;;;;;;;;;5032982;28;20511;-30
2022/05/20 05:01:52;;;;;;;14.93;12.23;;;;;;;;;;5051597;28;20079;-29
2022/05/20 05:04:19;;;;;;;14.95;13.45;;;;;;;;;;5033102;28;20503;-30
2022/05/20 05:06:47;;;;;;;14.25;12.02;;;;;;;;;;5051630;28;20386;-30
2022/05/20 05:09:13;;;;;;;15.68;13.43;;;;;;;;;;5050766;28;20522;-31
2022/05/20 05:11:40;;;;;;;14.77;13.18;;;;;;;;;;5050185;28;20102;-28
2022/05/20 05:14:07;;;;;;;14.00;12.55;;;;;;;;;;5033864;28;20064;-29
2022/05/20 05:16:34;;;;;;;14.02;12.45;;;;;;;;;;5036045;28;20064;-30
2022/05/20 05:19:00;;;;;;;13.88;12.48;;;;;;;;;;5044600;28;20103;-28
2022/05/20 05:21:26;;;;;;;14.38;12.85;;;;;;;;;;5028594;28;20037;-27
2022/05/20 05:23:54;;;;;;;13.70;11.73;;;;;;;;;;5044931;28;20072;-30
2022/05/20 05:26:20;;;;;;;18.02;13.68;;;;;;;;;;5048776;28;20044;-29
2022/05/20 05:28:46;;;;;;;14.85;12.73;;;;;;;;;;5045799;28;20102;-28
2022/05/20 05:31:12;;;;;;;18.40;15.00;;;;;;;;;;5019072;28;20076;-32
2022/05/20 05:33:38;;;;;;;17.25;13.60;;;;;;;;;;5031650;28;20033;-30
2022/05/20 05:36:04;;;;;;;17.38;12.90;;;;;;;;;;5031718;28;20091;-31
2022/05/20 05:38:31;;;;;;;16.98;12.88;;;;;;;;;;5027755;28;20045;-30
2022/05/20 05:40:58;;;;;;;16.27;12.75;;;;;;;;;;5027572;28;20330;-32
2022/05/20 05:43:26;;;;;;;17.88;14.48;;;;;;;;;;5032072;28;20457;-33
2022/05/20 05:45:52;;;;;;;15.95;13.68;;;;;;;;;;5041771;28;20068;-30
2022/05/20 05:48:18;;;;;;;16.17;14.05;;;;;;;;;;5039567;28;20048;-30
2022/05/20 05:50:44;;;;;;;14.25;12.85;;;;;;;;;;5044832;28;20041;-32
2022/05/20 05:53:12;;;;;;;16.73;12.75;;;;;;;;;;5041015;28;20137;-29
2022/05/20 05:55:38;;;;;;;14.05;12.55;;;;;;;;;;5030104;28;20029;-29
2022/05/20 05:58:05;;;;;;;13.27;11.18;;;;;;;;;;5030217;28;20120;-29
2022/05/20 06:00:31;;;;;;;14.13;11.48;;;;;;;;;;5030775;28;20049;-31
2022/05/20 06:02:57;;;;;;;11.40;10.30;;;;;;;;;;5035247;28;20041;-30
2022/05/20 06:05:23;;;;;;;13.52;11.10;;;;;;;;;;5036066;28;20034;-29
2022/05/20 06:07:51;;;;;;;13.40;11.20;;;;;;;;;;5041872;28;20037;-32
2022/05/20 06:10:18;;;;;;;11.68;10.10;;;;;;;;;;5049946;28;20052;-31
2022/05/20 06:12:44;;;;;;;12.93;10.55;;;;;;;;;;5045216;28;20047;-32
2022/05/20 06:15:13;;;;;;;12.00;9.75;;;;;;;;;;5049876;28;20095;-32
2022/05/20 06:17:39;;;;;;;11.25;10.00;;;;;;;;;;5030098;28;20052;-32
2022/05/20 06:20:06;;;;;;;12.82;10.25;;;;;;;;;;5038540;28;20040;-33
2022/05/20 06:22:32;;;;;;;13.05;9.57;;;;;;;;;;5050757;28;20041;-28
2022/05/20 06:24:59;;;;;;;10.95;9.38;;;;;;;;;;5049463;28;20045;-30
2022/05/20 06:27:25;;;;;;;13.13;9.18;;;;;;;;;;5049463;28;20033;-31
2022/05/20 06:29:52;;;;;;;11.40;8.93;;;;;;;;;;5051835;28;20482;-29
2022/05/20 06:32:18;;;;;;;10.55;9.05;;;;;;;;;;5054250;28;20037;-30
2022/05/20 06:40:16;;;;;;;11.10;8.60;;;;;;;;;;5034675;28;20128;-30
2022/05/20 06:42:43;;;;;;;12.05;8.88;;;;;;;;;;5034070;28;20041;-29
2022/05/20 06:45:10;;;;;;;14.52;9.45;;;;;;;;;;5033601;28;20049;-30
2022/05/20 06:47:36;;;;;;;10.43;9.20;;;;;;;;;;5016610;28;20427;-30
2022/05/20 06:50:02;;;;;;;10.27;9.27;;;;;;;;;;5044563;28;20040;-30
2022/05/20 06:52:28;;;;;;;10.93;9.82;;;;;;;;;;5053614;28;20115;-29
2022/05/20 06:54:54;;;;;;;12.27;10.82;;;;;;;;;;5053493;28;20036;-30
2022/05/20 06:57:21;;;;;;;14.65;11.25;;;;;;;;;;5053194;28;20041;-29
2022/05/20 06:59:48;;;;;;;15.05;11.35;;;;;;;;;;5052913;28;20037;-30
2022/05/20 07:02:14;;;;;;;12.60;10.32;;;;;;;;;;5037362;28;20052;-30
2022/05/20 07:04:40;;;;;;;13.82;11.95;;;;;;;;;;5034076;28;20507;-29
2022/05/20 07:07:06;;;;;;;13.32;10.85;;;;;;;;;;4999534;28;20041;-29
2022/05/20 07:09:33;;;;;;;14.02;10.45;;;;;;;;;;5052569;28;20040;-31
2022/05/20 07:11:59;;;;;;;12.13;10.57;;;;;;;;;;5049952;28;20040;-29
2022/05/20 07:14:25;;;;;;;11.13;9.98;;;;;;;;;;5036571;28;20037;-29
2022/05/20 07:16:51;;;;;;;11.38;10.18;;;;;;;;;;5052931;28;20059;-28
2022/05/20 07:19:18;;;;;;;11.68;9.38;;;;;;;;;;5051888;28;20067;-29
2022/05/20 07:21:44;;;;;;;11.30;10.30;;;;;;;;;;5041049;28;20048;-29
2022/05/20 07:24:10;;;;;;;13.05;10.13;;;;;;;;;;5035526;28;20045;-30
2022/05/20 07:26:37;;;;;;;11.15;9.88;;;;;;;;;;5019377;28;20081;-29
2022/05/20 07:29:04;;;;;;;12.32;10.50;;;;;;;;;;5053264;28;20033;-30
2022/05/20 07:31:30;;;;;;;12.68;10.93;;;;;;;;;;5029659;28;20041;-31
2022/05/20 07:33:57;;;;;;;13.15;11.30;;;;;;;;;;5053116;28;20544;-29
2022/05/20 07:36:23;;;;;;;13.85;12.43;;;;;;;;;;5050770;28;20041;-29
2022/05/20 07:38:50;;;;;;;12.00;10.75;;;;;;;;;;5033481;28;20033;-29
2022/05/20 07:41:17;;;;;;;12.60;10.82;;;;;;;;;;5032673;28;20121;-29
2022/05/20 07:43:43;;;;;;;11.13;10.13;;;;;;;;;;5043252;28;20076;-29
2022/05/20 07:46:10;;;;;;;11.80;10.60;;;;;;;;;;5033601;28;20545;-29
2022/05/20 07:48:36;;;;;;;12.68;11.07;;;;;;;;;;5051089;28;20055;-29
2022/05/20 07:51:14;;;;;;;12.45;10.95;;;;;;;;;;5018749;28;20045;-30
2022/05/20 07:53:44;;;;;;;12.20;11.02;;;;;;;;;;5034644;28;20068;-33
2022/05/20 07:56:16;;;;;;;12.60;10.98;;;;;;;;;;5035226;28;20044;-29
2022/05/20 07:58:47;;;;;;;12.23;11.13;;;;;;;;;;5033423;28;20037;-30
2022/05/20 08:01:14;;;;;;;11.73;10.52;;;;;;;;;;5053394;28;20124;-31
2022/05/20 08:06:25;;;;;;;11.55;10.45;;;;;;;;;;5052438;28;20086;-31
2022/05/20 08:08:54;;;;;;;12.48;11.30;;;;;;;;;;5034706;28;20044;-30
2022/05/20 08:11:20;;;;;;;14.98;11.68;;;;;;;;;;5024820;28;20125;-30
2022/05/20 08:13:50;;;;;;;12.00;10.90;;;;;;;;;;5015194;28;20051;-30
2022/05/20 08:16:19;;;;;;;12.90;11.65;;;;;;;;;;5032681;28;20091;-30
2022/05/20 08:18:45;;;;;;;12.00;10.80;;;;;;;;;;5050192;28;20518;-29
2022/05/20 08:21:11;;;;;;;12.68;11.48;;;;;;;;;;5034767;28;20041;-30
2022/05/20 08:23:37;;;;;;;10.57;9.57;;;;;;;;;;5032608;28;20038;-31
2022/05/20 08:26:03;;;;;;;13.00;11.63;;;;;;;;;;5048498;28;20044;-30
2022/05/20 08:28:29;;;;;;;12.10;10.90;;;;;;;;;;5035191;28;20391;-30
2022/05/20 08:30:56;;;;;;;10.38;8.50;;;;;;;;;;5048001;28;20487;-30
2022/05/20 08:33:22;;;;;;;9.18;8.27;;;;;;;;;;5032127;28;20099;-30
2022/05/20 08:35:48;;;;;;;10.05;9.13;;;;;;;;;;5052676;28;20041;-34
2022/05/20 08:38:14;;;;;;;10.13;9.25;;;;;;;;;;5052395;28;20048;-32
2022/05/20 08:40:49;;;;;;;11.60;9.77;;;;;;;;;;5051980;28;20048;-30
2022/05/20 08:43:16;;;;;;;9.63;8.82;;;;;;;;;;5052507;28;20120;-31
2022/05/20 08:45:42;;;;;;;9.52;8.48;;;;;;;;;;5051856;28;20048;-30
2022/05/20 08:48:11;;;;;;;8.77;7.88;;;;;;;;;;5052694;28;20083;-31
2022/05/20 08:50:39;;;;;;;8.90;8.02;;;;;;;;;;5052199;28;20549;-30
2022/05/20 08:53:08;;;;;;;8.25;7.43;;;;;;;;;;5039352;28;20091;-30
2022/05/20 08:55:34;;;;;;;7.65;7.00;;;;;;;;;;5015131;28;20053;-30
2022/05/20 08:58:02;;;;;;;10.27;8.55;;;;;;;;;;5051844;28;20047;-30
2022/05/20 09:00:28;;;;;;;10.35;9.45;;;;;;;;;;5013676;28;20498;-30
2022/05/20 09:02:55;;;;;;;10.43;9.57;;;;;;;;;;5049432;28;20041;-29
2022/05/20 09:05:23;;;;;;;10.10;9.10;;;;;;;;;;5015110;28;20083;-30
2022/05/20 09:08:20;;;;;;;11.10;10.00;;;;;;;;;;5032433;28;20483;-30
2022/05/20 09:10:48;;;;;;;10.63;9.73;;;;;;;;;;5031793;28;20095;-29
2022/05/20 09:16:21;;;;;;;9.93;9.02;;;;;;;;;;5043927;28;20098;-30
2022/05/20 09:18:49;;;;;;;9.13;8.20;;;;;;;;;;5051385;28;20037;-30
2022/05/20 09:21:41;;;;;;;8.70;7.95;;;;;;;;;;5017026;28;20136;-30
2022/05/20 09:24:14;;;;;;;9.93;8.98;;;;;;;;;;5048076;28;20057;-31
2022/05/20 09:26:45;;;;;;;11.05;9.02;;;;;;;;;;5051473;28;20076;-30
2022/05/20 09:29:15;;;;;;;9.25;8.35;;;;;;;;;;5051339;28;20029;-32
2022/05/20 09:31:41;;;;;;;10.45;9.48;;;;;;;;;;5033647;28;20057;-30
2022/05/20 09:34:26;;;;;;;10.70;9.35;;;;;;;;;;5051198;28;20049;-30
2022/05/20 09:37:05;;;;;;;9.77;8.88;;;;;;;;;;5031727;28;20410;-31
2022/05/20 09:39:37;;;;;;;10.02;9.15;;;;;;;;;;5031300;28;20121;-31
2022/05/20 09:42:12;;;;;;;10.18;9.30;;;;;;;;;;4997242;28;20447;-30
2022/05/20 09:44:40;;;;;;;9.48;8.60;;;;;;;;;;5013397;28;20048;-29
2022/05/20 09:47:06;;;;;;;10.00;9.10;;;;;;;;;;5031065;28;20048;-30
2022/05/20 09:49:42;;;;;;;9.38;8.65;;;;;;;;;;5031243;28;20125;-30
2022/05/20 09:52:17;;;;;;;8.52;7.88;;;;;;;;;;5030856;28;20060;-32
2022/05/20 09:54:45;;;;;;;8.60;7.90;;;;;;;;;;5031192;28;20117;-32
2022/05/20 09:57:11;;;;;;;8.95;8.25;;;;;;;;;;5031662;28;20042;-30
2022/05/20 09:59:47;;;;;;;7.85;7.25;;;;;;;;;;5031251;28;20115;-31
2022/05/20 10:02:25;;;;;;;8.65;7.90;;;;;;;;;;5031347;28;20052;-31
2022/05/20 10:04:58;;;;;;;7.70;7.10;;;;;;;;;;5014007;28;20042;-31
2022/05/20 10:07:34;;;;;;;8.77;6.43;;;;;;;;;;5035176;28;20124;-30
2022/05/20 10:10:05;;;;;;;6.50;5.90;;;;;;;;;;5035006;28;20106;-30
2022/05/20 10:12:34;;;;;;;7.80;6.90;;;;;;;;;;5034834;28;20041;-30
2022/05/20 10:15:14;;;;;;;7.68;7.07;;;;;;;;;;5016967;28;20407;-30
2022/05/20 10:17:47;;;;;;;6.75;6.13;;;;;;;;;;5017182;28;20419;-30
2022/05/20 10:20:32;;;;;;;8.40;7.55;;;;;;;;;;5034544;28;20041;-30
2022/05/20 10:23:17;;;;;;;7.47;6.68;;;;;;;;;;5034844;28;20060;-31
2022/05/20 10:25:49;;;;;;;6.30;5.80;;;;;;;;;;5034821;28;20048;-30
2022/05/20 10:34:16;;;;;;;6.85;6.25;;;;;;;;;;5034412;28;20395;-30
2022/05/20 10:36:47;;;;;;;7.68;7.00;;;;;;;;;;5034385;28;20049;-31
2022/05/20 10:39:32;;;;;;;6.18;5.70;;;;;;;;;;5034064;28;20041;-31
2022/05/20 10:42:06;;;;;;;6.75;6.15;;;;;;;;;;5034141;28;20045;-30
2022/05/20 10:50:16;;;;;;;5.68;5.18;;;;;;;;;;5033994;28;20051;-30
2022/05/20 10:52:48;;;;;;;6.28;5.78;;;;;;;;;;5016210;28;20126;-29
2022/05/20 10:55:22;;;;;;;6.88;6.30;;;;;;;;;;5016508;28;20048;-29
2022/05/20 10:58:10;;;;;;;7.78;7.18;;;;;;;;;;5034085;28;20479;-30
2022/05/20 11:00:52;;;;;;;7.93;7.22;;;;;;;;;;5034126;28;20049;-30
2022/05/20 11:03:24;;;;;;;8.33;6.63;;;;;;;;;;5033935;28;20376;-30
2022/05/20 11:06:10;;;;;;;7.38;6.72;;;;;;;;;;5015819;28;20077;-30
2022/05/20 11:08:46;;;;;;;7.13;6.35;;;;;;;;;;5033988;28;20038;-30
2022/05/20 11:11:12;;;;;;;6.97;6.35;;;;;;;;;;5047994;28;20044;-30
2022/05/20 11:13:47;;;;;;;6.28;5.70;;;;;;;;;;5053746;28;20048;-30
2022/05/20 11:16:22;;;;;;;4.68;4.38;;;;;;;;;;5053337;28;20052;-30
2022/05/20 11:18:57;;;;;;;5.45;5.05;;;;;;;;;;5053516;28;20126;-30
2022/05/20 11:21:30;;;;;;;5.25;4.72;;;;;;;;;;5053254;28;20071;-29
2022/05/20 11:24:05;;;;;;;6.07;5.30;;;;;;;;;;5053666;28;20124;-31
2022/05/20 11:26:32;;;;;;;7.50;6.97;;;;;;;;;;5053165;28;20037;-30
2022/05/20 11:29:04;;;;;;;6.03;5.53;;;;;;;;;;5035266;28;20080;-31
2022/05/20 11:31:52;;;;;;;5.22;4.72;;;;;;;;;;5053297;28;20060;-31
2022/05/20 11:34:38;;;;;;;4.20;3.80;;;;;;;;;;5053417;28;20048;-31
2022/05/20 11:37:11;;;;;;;4.05;3.72;;;;;;;;;;5052810;28;20091;-34
2022/05/20 11:39:55;;;;;;;3.37;3.07;;;;;;;;;;5052325;28;20529;-30
2022/05/20 11:42:28;;;;;;;4.22;3.83;;;;;;;;;;5034944;28;20052;-30
2022/05/20 11:45:15;;;;;;;4.78;4.43;;;;;;;;;;5052950;28;20141;-30
2022/05/20 11:47:51;;;;;;;4.10;3.75;;;;;;;;;;5034927;28;20055;-30
2022/05/20 11:50:27;;;;;;;4.22;3.80;;;;;;;;;;5018604;28;20040;-30
2022/05/20 11:52:56;;;;;;;4.75;4.43;;;;;;;;;;5053003;28;20032;-31
2022/05/20 11:55:25;;;;;;;5.13;4.72;;;;;;;;;;5017981;28;20048;-30
2022/05/20 11:57:55;;;;;;;4.10;3.80;;;;;;;;;;5029550;28;20045;-30
2022/05/20 12:00:22;;;;;;;4.95;4.35;;;;;;;;;;5018753;28;20052;-31
2022/05/20 12:02:55;;;;;;;5.18;4.25;;;;;;;;;;5043191;28;20479;-31
2022/05/20 12:05:22;;;;;;;;;;;;;;;;;;5043265;28;20044;-30
2022/05/20 12:07:48;;;;;;;4.43;4.13;;;;;;;;;;5044299;28;19917;-30
2022/05/20 12:10:17;;;;;;;5.25;4.65;;;;;;;;;;5044619;28;20040;-30
2022/05/20 12:12:54;;;;;;;5.35;4.38;;;;;;;;;;5038428;28;20115;-30
2022/05/20 12:15:20;;;;;;;4.38;3.97;;;;;;;;;;5047220;28;20521;-30
2022/05/20 12:17:52;;;;;;;6.07;5.53;;;;;;;;;;5044826;28;20045;-30
2022/05/20 12:25:54;;;;;;;5.88;5.30;;;;;;;;;;5045608;28;20402;-32
2022/05/20 12:28:23;;;;;;;6.57;5.97;;;;;;;;;;5040823;28;20037;-34
2022/05/20 12:30:52;;;;;;;6.82;6.22;;;;;;;;;;5031825;28;20044;-36
2022/05/20 12:33:47;;;;;;;8.25;7.55;;;;;;;;;;5031587;28;20517;-33
2022/05/20 12:36:13;;;;;;;6.85;6.25;;;;;;;;;;5034508;28;20033;-34
2022/05/20 12:38:39;;;;;;;7.18;6.47;;;;;;;;;;5035589;28;20041;-32
2022/05/20 12:41:15;;;;;;;6.18;5.63;;;;;;;;;;5037324;28;20183;-31
2022/05/20 12:43:43;;;;;;;6.05;5.45;;;;;;;;;;5041201;28;20078;-33
2022/05/20 12:46:13;;;;;;;5.63;5.13;;;;;;;;;;5036168;28;20117;-32
2022/05/20 12:48:39;;;;;;;8.82;7.07;;;;;;;;;;5036795;28;20033;-32
2022/05/20 12:51:07;;;;;;;7.10;6.38;;;;;;;;;;5034155;28;20095;-32
2022/05/20 12:53:33;;;;;;;9.18;8.27;;;;;;;;;;5034760;28;20033;-32
2022/05/20 12:56:00;;;;;;;9.38;8.52;;;;;;;;;;5032314;28;20110;-33
2022/05/20 12:58:31;;;;;;;8.90;7.97;;;;;;;;;;5035310;28;20106;-32
2022/05/20 13:01:01;;;;;;;8.68;7.78;;;;;;;;;;5038677;28;20051;-31
2022/05/20 13:03:43;;;;;;;8.30;6.95;;;;;;;;;;5039733;28;20069;-34
2022/05/20 13:06:28;;;;;;;7.45;6.72;;;;;;;;;;5044755;28;20623;-31
2022/05/20 13:08:58;;;;;;;7.57;6.75;;;;;;;;;;5049094;28;20037;-32
2022/05/20 13:11:25;;;;;;;7.97;6.22;;;;;;;;;;5042213;28;20044;-31
2022/05/20 13:13:52;;;;;;;5.60;5.15;;;;;;;;;;5047365;28;20104;-33
2022/05/20 13:16:21;;;;;;;6.38;5.78;;;;;;;;;;5047882;28;20048;-31
2022/05/20 13:19:01;;;;;;;6.10;5.50;;;;;;;;;;5045980;28;20449;-35
2022/05/20 13:21:28;;;;;;;7.15;6.55;;;;;;;;;;5038792;28;20399;-32
2022/05/20 13:23:54;;;;;;;7.20;6.50;;;;;;;;;;5040260;28;20433;-30
2022/05/20 13:26:23;;;;;;;9.32;8.40;;;;;;;;;;5050851;28;20055;-30
2022/05/20 13:28:50;;;;;;;9.30;8.00;;;;;;;;;;5041216;28;20048;-31
2022/05/20 13:31:23;;;;;;;8.60;7.85;;;;;;;;;;5050607;28;20060;-30
2022/05/20 13:33:49;;;;;;;;;;;;;;;;;;5050515;28;20079;-31
2022/05/20 13:36:17;;;;;;;8.85;8.02;;;;;;;;;;5050528;28;20329;-31
2022/05/20 13:38:45;;;;;;;8.70;7.82;;;;;;;;;;5049009;28;20120;-35
2022/05/20 13:41:12;;;;;;;8.80;7.95;;;;;;;;;;5049698;28;20037;-31
2022/05/20 13:43:39;;;;;;;10.52;8.45;;;;;;;;;;5050108;28;20045;-32
2022/05/20 13:49:13;;;;;;;9.93;9.05;;;;;;;;;;5044637;28;20087;-32
2022/05/20 13:51:45;;;;;;;11.50;10.18;;;;;;;;;;5043114;28;20463;-34
2022/05/20 13:54:13;;;;;;;15.57;10.65;;;;;;;;;;5047758;28;20593;-31
2022/05/20 13:56:41;;;;;;;13.40;11.30;;;;;;;;;;5054009;28;20071;-33
2022/05/20 13:59:25;;;;;;;16.08;12.52;;;;;;;;;;5049093;28;20044;-32
2022/05/20 14:02:02;;;;;;;13.18;11.88;;;;;;;;;;5034081;28;20487;-32
2022/05/20 14:04:46;;;;;;;16.40;12.68;;;;;;;;;;5046807;28;20053;-35
2022/05/20 14:07:18;;;;;;;14.20;12.75;;;;;;;;;;5047243;28;20502;-30
2022/05/20 14:09:55;;;;;;;15.18;13.27;;;;;;;;;;5051604;28;20036;-31
2022/05/20 14:12:24;;;;;;;15.88;14.23;;;;;;;;;;5039466;28;20033;-32
2022/05/20 14:14:58;;;;;;;15.93;14.30;;;;;;;;;;5045165;28;20049;-32
2022/05/20 14:17:25;;;;;;;14.40;12.90;;;;;;;;;;5050579;28;20041;-31
2022/05/20 14:19:52;;;;;;;15.25;13.70;;;;;;;;;;5032582;28;20048;-32
2022/05/20 14:22:20;;;;;;;15.32;13.32;;;;;;;;;;5050560;28;20111;-30
2022/05/20 14:24:55;;;;;;;13.80;12.10;;;;;;;;;;5050132;28;20076;-31
2022/05/20 14:27:40;;;;;;;14.45;12.80;;;;;;;;;;5050351;28;20044;-30
2022/05/20 14:30:18;;;;;;;13.77;12.35;;;;;;;;;;5053510;28;20045;-30
2022/05/20 14:32:44;;;;;;;17.10;14.30;;;;;;;;;;5052991;28;20037;-33
2022/05/20 14:35:10;;;;;;;16.13;13.00;;;;;;;;;;5053301;28;20052;-31
2022/05/20 14:37:37;;;;;;;17.15;14.80;;;;;;;;;;5053082;28;20045;-30
2022/05/20 14:40:14;;;;;;;20.25;15.82;;;;;;;;;;5053753;28;20427;-29
2022/05/20 14:42:44;;;;;;;23.45;16.63;;;;;;;;;;5053904;28;20041;-28
2022/05/20 14:45:16;;;;;;;19.63;15.35;;;;;;;;;;5054162;28;20134;-29
2022/05/20 14:47:44;;;;;;;15.13;12.63;;;;;;;;;;5054112;28;20037;-29
2022/05/20 14:50:20;;;;;;;14.38;12.73;;;;;;;;;;5053271;28;20379;-29
2022/05/20 14:52:49;;;;;;;11.85;10.80;;;;;;;;;;5053949;28;20059;-29
2022/05/20 14:55:17;;;;;;;13.48;12.13;;;;;;;;;;5053675;28;20051;-30
2022/05/20 14:57:59;;;;;;;14.85;12.60;;;;;;;;;;5053797;28;20041;-29
2022/05/20 15:00:26;;;;;;;13.57;12.25;;;;;;;;;;5053461;28;20041;-29
2022/05/20 15:02:53;;;;;;;13.85;12.48;;;;;;;;;;5053680;28;20102;-30
2022/05/20 15:05:19;;;;;;;14.02;12.65;;;;;;;;;;5053629;28;20312;-30
2022/05/20 15:07:46;;;;;;;14.07;12.60;;;;;;;;;;5053786;28;20072;-29
2022/05/20 15:10:17;;;;;;;13.55;11.60;;;;;;;;;;5053752;28;20037;-30
2022/05/20 15:12:44;;;;;;;13.77;12.23;;;;;;;;;;5053612;28;20037;-30
2022/05/20 15:15:10;;;;;;;14.40;12.55;;;;;;;;;;5053623;28;20293;-29
2022/05/20 15:17:44;;;;;;;13.60;11.77;;;;;;;;;;5035416;28;20406;-29
2022/05/20 15:20:10;;;;;;;;;;;;;;;;;;5053972;28;20059;-29
2022/05/20 15:22:37;;;;;;;16.40;12.95;;;;;;;;;;5053175;28;19924;-29
2022/05/20 15:25:03;;;;;;;15.20;12.23;;;;;;;;;;5053481;28;20546;-29
2022/05/20 15:27:31;;;;;;;15.60;13.68;;;;;;;;;;5053175;28;20044;-30